Historique des mesures à Cassis (13260), France
Quotidien Résumé Juin 13, 2017 Unités:  US    Métrique   Métrique/US
« Précédent (Jour)
Suivant (Jour) »
Quotidien Hebdomadaire Mensuel Annuel Période au choix
  Maximum: Minimum: Moyenne:
Température: 32 °F 71.2 °F 76.3 °F
Point de rosée: 32 °F 64.4 °F 66 °F
Humidité: Humidity % 60 % 67 %
Vitesse du vent: WindSpeedKMH mph 0.0 mph 2.2 mph
Rafales: WindSpeedGustKMH mph - -
Vent:- - SSW
Pression: 0 in 29.8 in -
Précipitations: 0 in    
Historical Graphs
 
 
Mesures pour : Juin 13, 2017
Heure Temperature Point de rosée Pression Vent Vitesse du vent Rafales Humidité Pluie (par heure) Conditions
32 °F 32 °F 0 in Calm     Humidity % 0 in SoftwareType W/m2
00:10 74.5 °F 67.3 °F 29.9 in Calm     78 % 0 in open2300-1.11 W/m2
01:10 74.1 °F 67.3 °F 29.8 in Calm     79 % 0 in open2300-1.11 W/m2
02:10 73.2 °F 66 °F 29.8 in Calm     78 % 0 in open2300-1.11 W/m2
03:10 72.7 °F 65.5 °F 29.8 in Calm     78 % 0 in open2300-1.11 W/m2
04:10 72 °F 65.1 °F 29.8 in Calm     79 % 0 in open2300-1.11 W/m2
05:11 71.8 °F 64.9 °F 29.8 in Calm     79 % 0 in open2300-1.11 W/m2
06:10 71.2 °F 64.4 °F 29.8 in Calm     79 % 0 in open2300-1.11 W/m2
07:10 71.8 °F 65.3 °F 29.8 in Calm     80 % 0 in open2300-1.11 W/m2
08:10 75.9 °F 67.8 °F 29.8 in Calm     76 % 0 in open2300-1.11 W/m2
09:10 76.6 °F 67.6 °F 29.8 in WSW 7.6 mph 7.6 mph 74 % 0 in open2300-1.11 W/m2
10:11 79.2 °F 69.3 °F 29.9 in SSW 5.5 mph 5.5 mph 72 % 0 in open2300-1.11 W/m2
11:10 82.9 °F 70.3 °F 29.9 in WNW 5.0 mph 5.0 mph 66 % 0 in open2300-1.11 W/m2
12:10 83.8 °F 70.3 °F 29.9 in West 4.3 mph 6.1 mph 64 % 0 in open2300-1.11 W/m2
13:10 84.7 °F 70.3 °F 29.9 in Calm   7.2 mph 62 % 0 in open2300-1.11 W/m2
14:10 84.6 °F 69.6 °F 29.9 in South 6.8 mph 9.0 mph 61 % 0 in open2300-1.11 W/m2
15:11 84.7 °F 69.8 °F 29.9 in West 5.8 mph 5.8 mph 61 % 0 in open2300-1.11 W/m2
16:10 84.4 °F 69.1 °F 29.9 in SW 6.8 mph 6.8 mph 60 % 0 in open2300-1.11 W/m2
17:10 84 °F 68.7 °F 29.8 in ESE 4.0 mph 5.8 mph 60 % 0 in open2300-1.11 W/m2
18:10 83.1 °F 68.4 °F 29.8 in SE 4.0 mph 4.7 mph 61 % 0 in open2300-1.11 W/m2
19:10 81.5 °F 66.7 °F 29.8 in South 2.1 mph 3.2 mph 61 % 0 in open2300-1.11 W/m2
20:10 80.1 °F 66.4 °F 29.8 in SE 2.1 mph 3.2 mph 63 % 0 in open2300-1.11 W/m2
21:10 78.4 °F 66.9 °F 29.8 in Calm     68 % 0 in open2300-1.11 W/m2
22:11 76.6 °F 67.3 °F 29.8 in Calm     73 % 0 in open2300-1.11 W/m2
23:10 74.5 °F 64.6 °F 29.9 in Calm     71 % 0 in open2300-1.11 W/m2
Observations météo à CASSIS
WU-History script by Weather Underground - 1 mb